ADDS METAR Data INFO
IDs: Format: Raw Decoded Include TAF

Data at: 2022 UTC 20 Jul 2018

KACQ 202015Z AUTO 30014KT 10SM SCT024 SCT032 SCT042 23/18 A2987 RMK AO2
KACQ 201955Z AUTO 32009G17KT 10SM SCT022 SCT027 BKN110 22/18 A2987 RMK AO2
KACQ 201935Z AUTO 32012G17KT 10SM SCT022 SCT026 BKN041 22/18 A2987 RMK AO2
KACQ 201915Z AUTO 32014KT 10SM SCT018 SCT028 23/18 A2987 RMK AO2
KACQ 201855Z AUTO 31013G17KT 10SM SCT016 SCT023 SCT029 22/18 A2987 RMK AO2
KACQ 201835Z AUTO 31008KT 10SM SCT023 SCT029 SCT090 22/18 A2988 RMK AO2
KACQ 201815Z AUTO 32009KT 10SM BKN080 21/17 A2988 RMK AO2
KACQ 201755Z AUTO 32010G17KT 10SM SCT019 SCT029 OVC080 21/17 A2988 RMK AO2
KACQ 201735Z AUTO 32011KT 10SM BKN015 BKN022 OVC029 20/17 A2988 RMK AO2
KACQ 201715Z AUTO 30012G16KT 10SM OVC015 20/17 A2988 RMK AO2
KACQ 201655Z AUTO 33010G16KT 10SM BKN013 OVC018 20/17 A2988 RMK AO2
KACQ 201635Z AUTO 33013G19KT 10SM BKN013 OVC019 20/17 A2987 RMK AO2
KACQ 201615Z AUTO 33012G20KT 10SM BKN009 OVC015 18/16 A2987 RMK AO2
KACQ 201555Z AUTO 33011G16KT 10SM SCT009 OVC015 18/16 A2986 RMK AO2 LTG DSNT SW
KACQ 201535Z AUTO 33010KT 10SM RA SCT011 BKN015 OVC020 18/16 A2986 RMK AO2
KACQ 201515Z AUTO 33010G15KT 10SM -RA SCT011 OVC017 18/16 A2986 RMK AO2
KACQ 201455Z AUTO 33009G17KT 10SM SCT007 BKN011 OVC018 17/16 A2986 RMK AO2
KACQ 201435Z AUTO 33010KT 10SM BKN010 OVC013 17/16 A2986 RMK AO2
KACQ 201415Z AUTO 33009G14KT 10SM OVC010 17/16 A2985 RMK AO2
KACQ 201355Z AUTO 32009KT 10SM OVC006 17/16 A2984 RMK AO2
KACQ 201335Z AUTO 32008G15KT 7SM OVC004 17/16 A2983 RMK AO2
KACQ 201315Z AUTO 32012G15KT 5SM BR OVC004 17/16 A2982 RMK AO2
KACQ 201255Z AUTO 32008G15KT 3SM BR OVC004 17/16 A2981 RMK AO2
KACQ 201235Z AUTO 32009KT 3SM BR OVC004 17/16 A2981 RMK AO2
KACQ 201215Z AUTO 33011G14KT 4SM BR OVC004 17/16 A2979 RMK AO2
KACQ 201155Z AUTO 32011G16KT 5SM BR OVC004 17/16 A2979 RMK AO2
KACQ 201135Z AUTO 33007KT 7SM OVC004 17/16 A2978 RMK AO2
KACQ 201115Z AUTO 34009G15KT 10SM OVC002 17/16 A2977 RMK AO2
KACQ 201055Z AUTO 33008KT 7SM OVC002 17/16 A2977 RMK AO2
KACQ 201035Z AUTO 34011KT 4SM BR OVC002 17/16 A2976 RMK AO2
KACQ 201015Z AUTO 33010G14KT 4SM BR OVC004 17/16 A2974 RMK AO2
KACQ 200955Z AUTO 32009KT 5SM BR OVC004 17/16 A2974 RMK AO2
KACQ 200935Z AUTO 34007KT 7SM OVC004 17/16 A2973 RMK AO2
KACQ 200915Z AUTO 33010KT 7SM OVC004 17/16 A2973 RMK AO2
KACQ 200855Z AUTO 34010G15KT 5SM RA OVC004 17/16 A2973 RMK AO2
KACQ 200835Z AUTO 34011G16KT 3SM BR OVC004 17/16 A2972 RMK AO2
KACQ 200815Z AUTO 34012G15KT 4SM BR OVC004 17/16 A2972 RMK AO2
KACQ 200755Z AUTO 33012G16KT 5SM BR OVC004 17/16 A2971 RMK AO2 P0001
KACQ 200735Z AUTO 33010KT 7SM OVC004 17/16 A2970 RMK AO2
KACQ 200715Z AUTO 34007KT 10SM OVC004 17/16 A2970 RMK AO2
KACQ 200655Z AUTO 36008KT 3SM BR OVC002 17/16 A2969 RMK AO2
KACQ 200635Z AUTO 01009KT 1 1/4SM BR OVC002 17/16 A2968 RMK AO2
KACQ 200615Z AUTO 02008KT 1 1/2SM BR OVC002 17/16 A2968 RMK AO2
KACQ 200555Z AUTO 02010KT 4SM BR OVC002 17/16 A2968 RMK AO2
KACQ 200535Z AUTO 02006KT 5SM BR OVC004 18/17 A2967 RMK AO2
KACQ 200515Z AUTO 03007KT 5SM BR OVC004 18/17 A2967 RMK AO2
KACQ 200455Z AUTO 02005KT 7SM DZ OVC004 18/17 A2966 RMK AO2
KACQ 200435Z AUTO 04006KT 7SM OVC004 18/17 A2966 RMK AO2
KACQ 200415Z AUTO 06004KT 7SM OVC004 18/17 A2966 RMK AO2
KACQ 200355Z AUTO 07005KT 7SM OVC004 18/17 A2966 RMK AO2
KACQ 200335Z AUTO 08006KT 7SM OVC004 18/17 A2966 RMK AO2
KACQ 200315Z AUTO 08006KT 10SM OVC006 18/17 A2966 RMK AO2
KACQ 200255Z AUTO 08006KT 10SM RA OVC006 18/17 A2966 RMK AO2 P0001
KACQ 200235Z AUTO 09006KT 10SM OVC006 18/17 A2966 RMK AO2
KACQ 200215Z AUTO 08006KT 10SM OVC006 18/17 A2965 RMK AO2
KACQ 200155Z AUTO 09007KT 10SM SCT006 BKN010 BKN018 18/17 A2966 RMK AO2
KACQ 200135Z AUTO 10008KT 10SM SCT006 BKN010 OVC020 19/17 A2965 RMK AO2
KACQ 200115Z AUTO 09007KT 10SM SCT010 SCT016 BKN024 20/18 A2965 RMK AO2
KACQ 200055Z AUTO 10008KT 10SM BKN008 BKN014 BKN024 20/17 A2965 RMK AO2
KACQ 200035Z AUTO 09008KT 10SM OVC008 20/17 A2966 RMK AO2
KACQ 200015Z AUTO 10005KT 10SM OVC008 20/17 A2967 RMK AO2
KACQ 192355Z AUTO 11008KT 10SM OVC008 20/17 A2967 RMK AO2
KACQ 192335Z AUTO 12008KT 10SM OVC008 20/18 A2967 RMK AO2
KACQ 192315Z AUTO 12010KT 10SM BKN008 OVC013 20/18 A2967 RMK AO2
KACQ 192255Z AUTO 12011G15KT 10SM BKN010 OVC017 21/18 A2968 RMK AO2
KACQ 192235Z AUTO 13011KT 10SM OVC010 20/17 A2969 RMK AO2
KACQ 192215Z AUTO 13009KT 10SM OVC010 20/18 A2970 RMK AO2
KACQ 192155Z AUTO 14010KT 10SM OVC010 20/17 A2971 RMK AO2
KACQ 192135Z AUTO 14008G18KT 10SM OVC010 20/17 A2972 RMK AO2
KACQ 192115Z AUTO 15010KT 10SM BKN010 OVC014 19/18 A2973 RMK AO2
KACQ 192055Z AUTO 12012G19KT 10SM OVC010 18/17 A2971 RMK AO2 P0001
KACQ 192035Z AUTO 12011G16KT 10SM OVC010 18/17 A2972 RMK AO2 P0001
KACQ 192015Z AUTO 12013G20KT 4SM -RA BKN008 OVC013 18/17 A2972 RMK AO2 LTG DSNT N AND S P0001
KACQ 191955Z AUTO 13015G21KT 3SM -RA OVC008 18/17 A2974 RMK AO2 LTG DSNT S P0009
KACQ 191935Z AUTO 12011G17KT 4SM -DZ BKN008 OVC011 18/17 A2974 RMK AO2 LTG DSNT SE
KACQ 191915Z AUTO 12013G16KT 2 1/2SM -RA OVC008 18/17 A2975 RMK AO2 LTG DSNT SE AND W
KACQ 191855Z AUTO 12012G20KT 5SM VCTS BR OVC010 18/17 A2976 RMK AO2
KACQ 191835Z AUTO 13012G17KT 10SM SCT009 OVC013 19/17 A2976 RMK AO2 LTG DSNT SE
KACQ 191815Z AUTO 13016G20KT 10SM SCT009 OVC016 20/17 A2976 RMK AO2
KACQ 191755Z AUTO 13016G22KT 10SM SCT009 BKN019 OVC032 20/17 A2977 RMK AO2
KACQ 191735Z AUTO 13015G20KT 10SM BKN034 OVC042 20/18 A2977 RMK AO2
KACQ 191715Z AUTO 13014KT 10SM SCT032 OVC040 20/18 A2979 RMK AO2 LTG DSNT S
KACQ 191655Z AUTO 13013G17KT 10SM SCT009 SCT022 OVC042 18/17 A2980 RMK AO2 P0020
KACQ 191635Z AUTO 13007G16KT 3SM -RA SCT007 BKN040 OVC047 17/16 A2982 RMK AO2 P0019
KACQ 191615Z AUTO 17013G19KT 3SM +RA SCT008 SCT014 OVC047 17/16 A2983 RMK AO2 P0008
KACQ 191555Z AUTO 17009G14KT 2 1/2SM +RA OVC011 18/16 A2983 RMK AO2 VIS 2V4 LTG DSNT SE P0026
KACQ 191535Z AUTO 15013G18KT 2SM +RA OVC011 18/16 A2982 RMK AO2 P0013
KACQ 191515Z AUTO 12015G22KT 10SM -RA SCT009 BKN013 OVC060 18/17 A2979 RMK AO2 LTG DSNT SW THRU NW
KACQ 191455Z AUTO 13015G24KT 10SM SCT009 OVC060 18/17 A2981 RMK AO2 LTG DSNT S AND SW P0006
KACQ 191435Z AUTO 13015G22KT 10SM -RA OVC065 18/17 A2982 RMK AO2 LTG DSNT N AND W P0006
KACQ 191415Z AUTO 13013G23KT 5SM RA SCT021 SCT032 OVC060 18/17 A2983 RMK AO2 P0004
KACQ 191355Z AUTO 13014G18KT 3SM +RA SCT010 BKN027 OVC041 18/17 A2985 RMK AO2 LTG DSNT SE S AND NW P0016
KACQ 191335Z AUTO 13012G16KT 5SM RA BKN010 OVC015 18/17 A2985 RMK AO2 LTG DSNT ALQS P0007
KACQ 191315Z AUTO 15008KT 5SM TSRA OVC008 18/17 A2986 RMK AO2 LTG DSNT ALQS P0002
KACQ 191255Z AUTO 13011G16KT 10SM -VCTSRA BKN010 BKN018 OVC046 19/17 A2985 RMK AO2 LTG DSNT SW AND W P0003
KACQ 191235Z AUTO 15008KT 10SM -VCTSRA SCT008 BKN033 OVC060 20/18 A2986 RMK AO2 LTG DSNT ALQS P0003
KACQ 191215Z AUTO 14008G14KT 10SM VCTSRA SCT050 SCT070 BKN120 20/18 A2986 RMK AO2 LTG DSNT ALQS P0001
KACQ 191155Z AUTO 13011KT 7SM RA SCT024 SCT033 BKN065 20/18 A2986 RMK AO2 LTG DSNT S THRU NW P0001
KACQ 191135Z AUTO 14011KT 10SM DZ SCT017 OVC065 20/17 A2987 RMK AO2 LTG DSNT S THRU W
KACQ 191115Z AUTO 14008KT 10SM SCT017 BKN065 OVC095 20/17 A2987 RMK AO2 LTG DSNT S THRU NW
KACQ 191055Z AUTO 13008KT 10SM BKN065 OVC095 20/17 A2988 RMK AO2 LTG DSNT S THRU W
KACQ 191035Z AUTO 13009G14KT 10SM VCTS SCT050 BKN075 OVC095 20/17 A2988 RMK AO2 LTG DSNT S AND SW
KACQ 191015Z AUTO 13009KT 10SM BKN050 BKN075 OVC095 20/17 A2989 RMK AO2 LTG DSNT W
KACQ 190955Z AUTO 13009KT 10SM BKN050 BKN065 OVC085 20/17 A2989 RMK AO2
KACQ 190935Z AUTO 13008KT 10SM BKN055 OVC085 20/17 A2990 RMK AO2 LTG DSNT S AND NW
KACQ 190915Z AUTO 13008KT 10SM BKN055 BKN065 18/17 A2990 RMK AO2
KACQ 190855Z AUTO 13008KT 10SM SCT065 BKN070 18/17 A2991 RMK AO2
KACQ 190835Z AUTO 12008KT 10SM SCT060 SCT070 18/17 A2991 RMK AO2